Eskisehir, Turkey

6:48 PM EEST on August 21, 2014 (GMT +0300)
Anadolu | Change Station
CLOSE
Current Station
Airport
Location: ANADOLU,
Elevation: 2589 ft
Nearby Weather Stations

Elev 2589 ft 39.81 °N, 30.52 °E | Updated 58 minutes ago

Clear
Clear
84 °F
Feels Like 84 °F
N
14
Wind Variable Wind from NW

Today
High -- | Low -- °F
--% Chance of Precip.
Yesterday
High -- | Low -- °F
Precip. -- in
6:15 AM 7:46 PM
Waning Crescent, 13% visible
Pressure 30.04 in
Visibility -9999.0 miles
Clouds
Dew Point 43 °F
Humidity 23%
Rainfall 0.00 in
Snow Depth Not available.
UV Not available.
Pollen Not available.
Air Quality Not available.
Flu Activity Not available.
METAR LTBY 211450Z 32012KT CAVOK 29/06 Q1017

More Conditions Fewer Conditions

Pressure 30.04 in
Visibility -9999.0 miles
Clouds
Dew Point 43 °F
Humidity 23%
Rainfall 0.00 in
Snow Depth Not available.
UV Not available.
Pollen Not available.
Air Quality Not available.
Flu Activity Not available.
METAR LTBY 211450Z 32012KT CAVOK 29/06 Q1017

More Conditions Fewer Conditions

10-Day Weather Forecast

Almanac

Astronomy

Aug. 21, 2014 Rise Set
Actual Time 6:15 AM EEST 7:46 PM EEST
Civil Twilight 5:46 AM EEST 8:14 PM EEST
Nautical Twilight 5:12 AM EEST 8:48 PM EEST
Astronomical Twilight 4:36 AM EEST 9:24 PM EEST
Moon 2:28 AM EEST 5:00 PM EEST
Length of Visible Light 14h 27m
Length of Day
13h 30m
Tomorrow will be 2m 23s shorter.
Waning Crescent, 13% of the Moon is Illuminated
Today
Waning Crescent
Aug 25
New
Sep 2
First Quarter
Sep 8
Full
Sep 15
Last Quarter

Today's Extremes

Country Highs Country Lows

Community

WunderPhotos

Upload Photos

1,745,949 photos uploaded!

Nearby

Snow Depth

Not available.

Earthquake Activity

City Distance Mag. Time & Date
No recent earthquake activity has been reported nearby.
Minimum magnitude displayed is 2.5.

Coastal Water Temperatures

Place Temperature
No Stations Reporting

Nearby Weather Stations